sensor_id;sensor_type;location;lat;lon;timestamp;pressure;altitude;pressure_sealevel;temperature;humidity
32197;BME280;18697;42.770;23.400;2022-07-21T00:00:01;95867.47;;;24.97;38.64
32197;BME280;18697;42.770;23.400;2022-07-21T00:02:30;95873.78;;;25.03;38.50
32197;BME280;18697;42.770;23.400;2022-07-21T00:04:55;95864.63;;;24.97;38.40
32197;BME280;18697;42.770;23.400;2022-07-21T00:07:20;95864.53;;;24.89;38.29
32197;BME280;18697;42.770;23.400;2022-07-21T00:09:46;95865.72;;;24.94;38.80
32197;BME280;18697;42.770;23.400;2022-07-21T00:12:11;95868.53;;;24.94;38.39
32197;BME280;18697;42.770;23.400;2022-07-21T00:14:37;95863.00;;;24.88;38.39
32197;BME280;18697;42.770;23.400;2022-07-21T00:17:03;95860.72;;;24.86;38.48
32197;BME280;18697;42.770;23.400;2022-07-21T00:19:28;95869.88;;;24.93;38.18
32197;BME280;18697;42.770;23.400;2022-07-21T00:21:53;95864.75;;;24.91;38.57
32197;BME280;18697;42.770;23.400;2022-07-21T00:24:19;95870.63;;;24.93;38.33
32197;BME280;18697;42.770;23.400;2022-07-21T00:26:44;95872.63;;;24.85;38.54
32197;BME280;18697;42.770;23.400;2022-07-21T00:29:10;95860.91;;;24.68;38.80
32197;BME280;18697;42.770;23.400;2022-07-21T00:31:36;95874.97;;;24.73;38.61
32197;BME280;18697;42.770;23.400;2022-07-21T00:34:01;95874.22;;;24.73;38.32
32197;BME280;18697;42.770;23.400;2022-07-21T00:36:27;95872.69;;;24.72;38.61
32197;BME280;18697;42.770;23.400;2022-07-21T00:38:52;95865.84;;;24.46;38.64
32197;BME280;18697;42.770;23.400;2022-07-21T00:41:17;95866.31;;;24.37;38.76
32197;BME280;18697;42.770;23.400;2022-07-21T00:43:43;95874.81;;;24.37;38.78
32197;BME280;18697;42.770;23.400;2022-07-21T00:46:08;95862.81;;;24.31;38.83
32197;BME280;18697;42.770;23.400;2022-07-21T00:48:34;95861.72;;;24.34;39.05
32197;BME280;18697;42.770;23.400;2022-07-21T00:50:59;95864.78;;;24.36;38.94
32197;BME280;18697;42.770;23.400;2022-07-21T00:53:25;95865.88;;;24.33;38.98
32197;BME280;18697;42.770;23.400;2022-07-21T00:55:50;95863.38;;;24.30;39.20
32197;BME280;18697;42.770;23.400;2022-07-21T00:58:16;95850.91;;;23.85;40.58
32197;BME280;18697;42.770;23.400;2022-07-21T01:00:41;95860.22;;;23.73;40.57
32197;BME280;18697;42.770;23.400;2022-07-21T01:03:07;95855.34;;;23.94;40.20
32197;BME280;18697;42.770;23.400;2022-07-21T01:05:33;95863.97;;;24.02;40.53
32197;BME280;18697;42.770;23.400;2022-07-21T01:07:58;95863.50;;;24.11;40.32
32197;BME280;18697;42.770;23.400;2022-07-21T01:10:29;95864.56;;;24.21;40.18
32197;BME280;18697;42.770;23.400;2022-07-21T01:12:55;95867.19;;;24.19;39.62
32197;BME280;18697;42.770;23.400;2022-07-21T01:15:23;95867.41;;;24.21;40.20
32197;BME280;18697;42.770;23.400;2022-07-21T01:17:49;95856.53;;;24.12;39.60
32197;BME280;18697;42.770;23.400;2022-07-21T01:20:18;95861.25;;;23.96;40.25
32197;BME280;18697;42.770;23.400;2022-07-21T01:22:47;95859.38;;;23.99;40.51
32197;BME280;18697;42.770;23.400;2022-07-21T01:25:13;95857.25;;;23.52;41.73
32197;BME280;18697;42.770;23.400;2022-07-21T01:27:39;95849.84;;;23.62;41.43
32197;BME280;18697;42.770;23.400;2022-07-21T01:30:06;95865.88;;;23.73;41.84
32197;BME280;18697;42.770;23.400;2022-07-21T01:32:36;95862.69;;;23.37;43.10
32197;BME280;18697;42.770;23.400;2022-07-21T01:35:03;95859.84;;;23.50;42.54
32197;BME280;18697;42.770;23.400;2022-07-21T01:37:30;95854.19;;;23.50;42.58
32197;BME280;18697;42.770;23.400;2022-07-21T01:39:56;95847.34;;;23.58;42.75
32197;BME280;18697;42.770;23.400;2022-07-21T01:42:47;95859.44;;;23.72;42.47
32197;BME280;18697;42.770;23.400;2022-07-21T01:45:13;95862.91;;;23.78;42.11
32197;BME280;18697;42.770;23.400;2022-07-21T01:47:38;95856.56;;;23.85;42.03
32197;BME280;18697;42.770;23.400;2022-07-21T01:50:06;95854.81;;;23.96;41.96
32197;BME280;18697;42.770;23.400;2022-07-21T01:52:31;95859.38;;;23.99;41.68
32197;BME280;18697;42.770;23.400;2022-07-21T01:54:57;95850.66;;;23.97;41.31
32197;BME280;18697;42.770;23.400;2022-07-21T01:57:22;95849.22;;;24.03;40.74
32197;BME280;18697;42.770;23.400;2022-07-21T01:59:48;95843.47;;;23.96;40.88
32197;BME280;18697;42.770;23.400;2022-07-21T02:02:13;95843.88;;;24.00;40.66
32197;BME280;18697;42.770;23.400;2022-07-21T02:04:38;95840.84;;;23.98;40.38
32197;BME280;18697;42.770;23.400;2022-07-21T02:07:04;95853.16;;;24.00;40.38
32197;BME280;18697;42.770;23.400;2022-07-21T02:09:29;95849.00;;;24.01;39.97
32197;BME280;18697;42.770;23.400;2022-07-21T02:11:55;95844.13;;;23.88;40.09
32197;BME280;18697;42.770;23.400;2022-07-21T02:14:20;95837.03;;;23.95;39.85
32197;BME280;18697;42.770;23.400;2022-07-21T02:16:46;95841.59;;;23.98;39.93
32197;BME280;18697;42.770;23.400;2022-07-21T02:19:11;95846.06;;;24.07;39.80
32197;BME280;18697;42.770;23.400;2022-07-21T02:21:37;95846.06;;;24.07;39.83
32197;BME280;18697;42.770;23.400;2022-07-21T02:24:02;95838.63;;;24.04;39.99
32197;BME280;18697;42.770;23.400;2022-07-21T02:26:28;95838.09;;;24.05;40.08
32197;BME280;18697;42.770;23.400;2022-07-21T02:28:53;95831.44;;;24.03;39.92
32197;BME280;18697;42.770;23.400;2022-07-21T02:31:19;95836.91;;;24.01;40.14
32197;BME280;18697;42.770;23.400;2022-07-21T02:33:44;95847.16;;;24.04;40.03
32197;BME280;18697;42.770;23.400;2022-07-21T02:36:10;95847.38;;;24.06;40.23
32197;BME280;18697;42.770;23.400;2022-07-21T02:38:35;95841.69;;;24.06;39.96
32197;BME280;18697;42.770;23.400;2022-07-21T02:41:01;95840.59;;;24.09;40.20
32197;BME280;18697;42.770;23.400;2022-07-21T02:43:26;95844.19;;;24.09;39.98
32197;BME280;18697;42.770;23.400;2022-07-21T02:45:51;95841.94;;;23.95;39.81
32197;BME280;18697;42.770;23.400;2022-07-21T02:48:18;95845.31;;;23.93;40.03
32197;BME280;18697;42.770;23.400;2022-07-21T02:50:44;95849.91;;;23.96;39.92
32197;BME280;18697;42.770;23.400;2022-07-21T02:53:15;95843.38;;;23.88;40.04
32197;BME280;18697;42.770;23.400;2022-07-21T02:55:44;95845.53;;;23.95;39.85
32197;BME280;18697;42.770;23.400;2022-07-21T02:58:13;95840.75;;;23.90;39.74
32197;BME280;18697;42.770;23.400;2022-07-21T03:00:51;95840.84;;;23.84;39.97
32197;BME280;18697;42.770;23.400;2022-07-21T03:03:17;95850.00;;;23.90;39.90
32197;BME280;18697;42.770;23.400;2022-07-21T03:05:43;95856.69;;;23.80;39.98
32197;BME280;18697;42.770;23.400;2022-07-21T03:08:10;95852.97;;;23.85;40.03
32197;BME280;18697;42.770;23.400;2022-07-21T03:10:36;95857.53;;;23.88;40.05
32197;BME280;18697;42.770;23.400;2022-07-21T03:13:03;95856.22;;;23.89;40.26
32197;BME280;18697;42.770;23.400;2022-07-21T03:15:29;95843.91;;;23.86;40.03
32197;BME280;18697;42.770;23.400;2022-07-21T03:17:55;95849.03;;;23.88;40.11
32197;BME280;18697;42.770;23.400;2022-07-21T03:20:25;95853.28;;;23.81;40.32
32197;BME280;18697;42.770;23.400;2022-07-21T03:22:51;95853.84;;;23.80;40.29
32197;BME280;18697;42.770;23.400;2022-07-21T03:25:16;95846.66;;;23.79;40.30
32197;BME280;18697;42.770;23.400;2022-07-21T03:27:43;95852.19;;;23.84;40.28
32197;BME280;18697;42.770;23.400;2022-07-21T03:30:09;95854.81;;;23.82;40.18
32197;BME280;18697;42.770;23.400;2022-07-21T03:32:35;95853.84;;;23.80;40.25
32197;BME280;18697;42.770;23.400;2022-07-21T03:35:01;95846.16;;;23.67;40.52
32197;BME280;18697;42.770;23.400;2022-07-21T03:37:27;95844.63;;;23.66;40.75
32197;BME280;18697;42.770;23.400;2022-07-21T03:39:52;95858.56;;;23.64;40.74
32197;BME280;18697;42.770;23.400;2022-07-21T03:42:18;95857.81;;;23.64;40.63
32197;BME280;18697;42.770;23.400;2022-07-21T03:44:43;95854.53;;;23.73;40.83
32197;BME280;18697;42.770;23.400;2022-07-21T03:47:09;95858.97;;;23.81;40.86
32197;BME280;18697;42.770;23.400;2022-07-21T03:49:34;95853.72;;;23.85;41.17
32197;BME280;18697;42.770;23.400;2022-07-21T03:52:00;95852.19;;;23.84;40.95
32197;BME280;18697;42.770;23.400;2022-07-21T03:54:25;95860.72;;;23.84;41.04
32197;BME280;18697;42.770;23.400;2022-07-21T03:56:51;95859.19;;;23.83;41.38
32197;BME280;18697;42.770;23.400;2022-07-21T03:59:16;95863.75;;;23.86;41.38
32197;BME280;18697;42.770;23.400;2022-07-21T04:01:42;95863.47;;;23.77;41.34
32197;BME280;18697;42.770;23.400;2022-07-21T04:04:07;95866.81;;;23.88;41.13
32197;BME280;18697;42.770;23.400;2022-07-21T04:06:33;95874.78;;;23.90;40.99
32197;BME280;18697;42.770;23.400;2022-07-21T04:08:58;95874.00;;;23.89;41.01
32197;BME280;18697;42.770;23.400;2022-07-21T04:11:24;95874.25;;;23.78;40.87
32197;BME280;18697;42.770;23.400;2022-07-21T04:13:49;95867.41;;;23.74;41.08
32197;BME280;18697;42.770;23.400;2022-07-21T04:16:14;95870.25;;;23.61;41.34
32197;BME280;18697;42.770;23.400;2022-07-21T04:18:40;95873.41;;;23.57;41.79
32197;BME280;18697;42.770;23.400;2022-07-21T04:21:05;95878.44;;;22.92;43.82
32197;BME280;18697;42.770;23.400;2022-07-21T04:23:31;95869.53;;;23.02;43.13
32197;BME280;18697;42.770;23.400;2022-07-21T04:25:57;95875.09;;;23.20;42.92
32197;BME280;18697;42.770;23.400;2022-07-21T04:28:22;95880.63;;;23.13;43.99
32197;BME280;18697;42.770;23.400;2022-07-21T04:30:47;95882.34;;;23.03;44.09
32197;BME280;18697;42.770;23.400;2022-07-21T04:33:13;95875.84;;;23.21;44.00
32197;BME280;18697;42.770;23.400;2022-07-21T04:35:38;95874.31;;;23.20;45.14
32197;BME280;18697;42.770;23.400;2022-07-21T04:38:03;95871.59;;;23.14;45.10
32197;BME280;18697;42.770;23.400;2022-07-21T04:40:29;95879.97;;;22.75;47.08
32197;BME280;18697;42.770;23.400;2022-07-21T04:42:54;95879.31;;;22.69;47.42
32197;BME280;18697;42.770;23.400;2022-07-21T04:45:20;95880.94;;;22.64;46.91
32197;BME280;18697;42.770;23.400;2022-07-21T04:47:50;95873.03;;;22.76;46.17
32197;BME280;18697;42.770;23.400;2022-07-21T04:50:17;95886.19;;;22.73;46.87
32197;BME280;18697;42.770;23.400;2022-07-21T04:52:43;95882.50;;;22.78;46.71
32197;BME280;18697;42.770;23.400;2022-07-21T04:55:09;95883.56;;;22.94;46.39
32197;BME280;18697;42.770;23.400;2022-07-21T04:57:40;95878.69;;;22.76;47.26
32197;BME280;18697;42.770;23.400;2022-07-21T05:00:09;95888.47;;;22.75;47.85
32197;BME280;18697;42.770;23.400;2022-07-21T05:02:35;95884.22;;;22.68;47.19
32197;BME280;18697;42.770;23.400;2022-07-21T05:05:00;95883.25;;;22.47;47.92
32197;BME280;18697;42.770;23.400;2022-07-21T05:07:27;95885.34;;;22.27;48.35
32197;BME280;18697;42.770;23.400;2022-07-21T05:09:52;95887.84;;;22.50;47.91
32197;BME280;18697;42.770;23.400;2022-07-21T05:12:18;95881.84;;;22.53;48.61
32197;BME280;18697;42.770;23.400;2022-07-21T05:14:43;95887.66;;;22.61;47.94
32197;BME280;18697;42.770;23.400;2022-07-21T05:17:08;95889.66;;;22.47;48.42
32197;BME280;18697;42.770;23.400;2022-07-21T05:19:34;95885.34;;;22.09;50.08
32197;BME280;18697;42.770;23.400;2022-07-21T05:21:59;95899.56;;;22.03;49.70
32197;BME280;18697;42.770;23.400;2022-07-21T05:24:24;95886.28;;;22.17;49.56
32197;BME280;18697;42.770;23.400;2022-07-21T05:26:50;95896.78;;;22.35;48.67
32197;BME280;18697;42.770;23.400;2022-07-21T05:29:15;95904.13;;;22.44;48.45
32197;BME280;18697;42.770;23.400;2022-07-21T05:31:40;95887.59;;;22.48;48.46
32197;BME280;18697;42.770;23.400;2022-07-21T05:34:06;95898.13;;;22.66;48.54
32197;BME280;18697;42.770;23.400;2022-07-21T05:36:31;95895.91;;;22.27;49.33
32197;BME280;18697;42.770;23.400;2022-07-21T05:38:57;95891.16;;;22.16;49.84
32197;BME280;18697;42.770;23.400;2022-07-21T05:41:22;95891.78;;;22.28;49.29
32197;BME280;18697;42.770;23.400;2022-07-21T05:43:48;95886.53;;;22.32;49.45
32197;BME280;18697;42.770;23.400;2022-07-21T05:46:14;95890.75;;;22.44;49.22
32197;BME280;18697;42.770;23.400;2022-07-21T05:48:39;95878.56;;;22.17;49.48
32197;BME280;18697;42.770;23.400;2022-07-21T05:51:05;95880.66;;;21.92;50.03
32197;BME280;18697;42.770;23.400;2022-07-21T05:53:31;95888.25;;;22.03;50.16
32197;BME280;18697;42.770;23.400;2022-07-21T05:55:56;95881.97;;;22.29;49.89
32197;BME280;18697;42.770;23.400;2022-07-21T05:58:22;95888.31;;;22.35;49.53
32197;BME280;18697;42.770;23.400;2022-07-21T06:00:50;95877.72;;;22.54;48.99
32197;BME280;18697;42.770;23.400;2022-07-21T06:03:37;95898.44;;;22.62;49.31
32197;BME280;18697;42.770;23.400;2022-07-21T06:06:03;95897.69;;;22.81;48.83
32197;BME280;18697;42.770;23.400;2022-07-21T06:08:28;95885.72;;;22.88;48.19
32197;BME280;18697;42.770;23.400;2022-07-21T06:10:54;95879.09;;;22.67;49.06
32197;BME280;18697;42.770;23.400;2022-07-21T06:13:20;95877.41;;;22.58;49.39
32197;BME280;18697;42.770;23.400;2022-07-21T06:15:45;95877.63;;;22.60;49.17
32197;BME280;18697;42.770;23.400;2022-07-21T06:18:10;95874.06;;;22.91;49.58
32197;BME280;18697;42.770;23.400;2022-07-21T06:20:36;95875.75;;;23.26;48.30
32197;BME280;18697;42.770;23.400;2022-07-21T06:23:01;95869.66;;;23.49;47.73
32197;BME280;18697;42.770;23.400;2022-07-21T06:25:27;95879.81;;;23.84;47.64
32197;BME280;18697;42.770;23.400;2022-07-21T06:27:52;95857.59;;;23.75;47.84
32197;BME280;18697;42.770;23.400;2022-07-21T06:30:18;95865.69;;;23.12;49.76
32197;BME280;18697;42.770;23.400;2022-07-21T06:32:43;95864.16;;;22.85;50.25
32197;BME280;18697;42.770;23.400;2022-07-21T06:35:09;95869.06;;;22.98;50.16
32197;BME280;18697;42.770;23.400;2022-07-21T06:37:35;95860.91;;;23.20;49.35
32197;BME280;18697;42.770;23.400;2022-07-21T06:40:00;95866.69;;;23.15;50.49
32197;BME280;18697;42.770;23.400;2022-07-21T06:42:26;95858.63;;;23.19;49.64
32197;BME280;18697;42.770;23.400;2022-07-21T06:44:51;95857.34;;;23.46;48.32
32197;BME280;18697;42.770;23.400;2022-07-21T06:47:17;95860.53;;;23.69;48.13
32197;BME280;18697;42.770;23.400;2022-07-21T06:49:42;95853.97;;;23.35;48.67
32197;BME280;18697;42.770;23.400;2022-07-21T06:52:07;95858.47;;;23.70;48.29
32197;BME280;18697;42.770;23.400;2022-07-21T06:54:33;95860.25;;;24.07;47.88
32197;BME280;18697;42.770;23.400;2022-07-21T06:56:58;95858.69;;;24.32;46.51
32197;BME280;18697;42.770;23.400;2022-07-21T06:59:24;95857.16;;;24.31;47.68
32197;BME280;18697;42.770;23.400;2022-07-21T07:01:49;95853.78;;;24.19;46.61
32197;BME280;18697;42.770;23.400;2022-07-21T07:04:15;95838.47;;;24.56;47.74
32197;BME280;18697;42.770;23.400;2022-07-21T07:06:40;95851.38;;;24.99;47.06
32197;BME280;18697;42.770;23.400;2022-07-21T07:09:06;95842.09;;;25.19;45.82
32197;BME280;18697;42.770;23.400;2022-07-21T07:11:31;95846.44;;;25.49;44.97
32197;BME280;18697;42.770;23.400;2022-07-21T07:13:59;95833.34;;;25.74;45.07
32197;BME280;18697;42.770;23.400;2022-07-21T07:16:25;95845.97;;;25.37;44.32
32197;BME280;18697;42.770;23.400;2022-07-21T07:18:50;95840.53;;;25.75;44.45
32197;BME280;18697;42.770;23.400;2022-07-21T07:21:16;95850.09;;;25.85;44.01
32197;BME280;18697;42.770;23.400;2022-07-21T07:23:41;95842.56;;;26.03;44.66
32197;BME280;18697;42.770;23.400;2022-07-21T07:26:08;95834.28;;;26.20;43.22
32197;BME280;18697;42.770;23.400;2022-07-21T07:28:33;95841.94;;;26.41;44.77
32197;BME280;18697;42.770;23.400;2022-07-21T07:30:59;95837.38;;;26.38;43.83
32197;BME280;18697;42.770;23.400;2022-07-21T07:33:24;95830.50;;;26.26;42.22
32197;BME280;18697;42.770;23.400;2022-07-21T07:35:51;95823.91;;;26.38;43.70
32197;BME280;18697;42.770;23.400;2022-07-21T07:38:17;95825.28;;;26.52;45.22
32197;BME280;18697;42.770;23.400;2022-07-21T07:40:42;95824.03;;;26.25;42.75
32197;BME280;18697;42.770;23.400;2022-07-21T07:43:08;95812.56;;;26.61;43.29
32197;BME280;18697;42.770;23.400;2022-07-21T07:45:35;95812.00;;;26.63;42.63
32197;BME280;18697;42.770;23.400;2022-07-21T07:48:01;95799.47;;;26.89;42.41
32197;BME280;18697;42.770;23.400;2022-07-21T07:50:26;95816.59;;;27.19;44.78
32197;BME280;18697;42.770;23.400;2022-07-21T07:52:52;95797.03;;;27.00;41.99
32197;BME280;18697;42.770;23.400;2022-07-21T07:55:17;95798.72;;;27.19;43.33
32197;BME280;18697;42.770;23.400;2022-07-21T07:57:43;95793.53;;;27.47;42.30
32197;BME280;18697;42.770;23.400;2022-07-21T08:00:14;95787.03;;;27.55;42.22
32197;BME280;18697;42.770;23.400;2022-07-21T08:02:40;95798.03;;;27.73;42.43
32197;BME280;18697;42.770;23.400;2022-07-21T08:05:06;95796.63;;;27.97;42.74
32197;BME280;18697;42.770;23.400;2022-07-21T08:07:34;95792.84;;;27.87;43.61
32197;BME280;18697;42.770;23.400;2022-07-21T08:09:59;95789.91;;;28.10;41.91
32197;BME280;18697;42.770;23.400;2022-07-21T08:12:25;95785.38;;;28.39;42.41
32197;BME280;18697;42.770;23.400;2022-07-21T08:14:50;95784.47;;;28.62;40.98
32197;BME280;18697;42.770;23.400;2022-07-21T08:17:16;95784.00;;;28.73;40.80
32197;BME280;18697;42.770;23.400;2022-07-21T08:19:42;95777.38;;;28.95;43.54
32197;BME280;18697;42.770;23.400;2022-07-21T08:22:08;95767.88;;;29.10;39.74
32197;BME280;18697;42.770;23.400;2022-07-21T08:24:34;95775.75;;;29.27;40.05
32197;BME280;18697;42.770;23.400;2022-07-21T08:26:59;95767.19;;;28.85;38.76
32197;BME280;18697;42.770;23.400;2022-07-21T08:29:25;95767.31;;;29.11;39.46
32197;BME280;18697;42.770;23.400;2022-07-21T08:31:50;95761.03;;;29.30;39.37
32197;BME280;18697;42.770;23.400;2022-07-21T08:34:15;95769.31;;;29.43;39.22
32197;BME280;18697;42.770;23.400;2022-07-21T08:36:41;95755.69;;;29.52;37.68
32197;BME280;18697;42.770;23.400;2022-07-21T08:39:06;95765.16;;;29.71;38.70
32197;BME280;18697;42.770;23.400;2022-07-21T08:41:32;95760.53;;;29.76;38.44
32197;BME280;18697;42.770;23.400;2022-07-21T08:43:58;95744.97;;;29.35;40.29
32197;BME280;18697;42.770;23.400;2022-07-21T08:46:24;95766.59;;;29.80;38.42
32197;BME280;18697;42.770;23.400;2022-07-21T08:48:50;95751.94;;;29.93;38.89
32197;BME280;18697;42.770;23.400;2022-07-21T08:51:16;95749.22;;;29.95;37.18
32197;BME280;18697;42.770;23.400;2022-07-21T08:53:45;95744.41;;;30.15;37.93
32197;BME280;18697;42.770;23.400;2022-07-21T08:56:11;95749.31;;;29.88;38.17
32197;BME280;18697;42.770;23.400;2022-07-21T08:58:36;95740.06;;;29.80;38.05
32197;BME280;18697;42.770;23.400;2022-07-21T09:01:03;95739.72;;;30.10;38.40
32197;BME280;18697;42.770;23.400;2022-07-21T09:03:28;95734.72;;;29.66;39.62
32197;BME280;18697;42.770;23.400;2022-07-21T09:06:05;95728.19;;;30.00;36.73
32197;BME280;18697;42.770;23.400;2022-07-21T09:08:38;95718.66;;;29.98;38.41
32197;BME280;18697;42.770;23.400;2022-07-21T09:11:18;95715.22;;;30.26;38.08
32197;BME280;18697;42.770;23.400;2022-07-21T09:13:48;95714.38;;;30.33;38.03
32197;BME280;18697;42.770;23.400;2022-07-21T09:16:32;95710.16;;;30.71;38.09
32197;BME280;18697;42.770;23.400;2022-07-21T09:18:59;95713.63;;;30.69;36.33
32197;BME280;18697;42.770;23.400;2022-07-21T09:21:24;95714.47;;;30.26;35.15
32197;BME280;18697;42.770;23.400;2022-07-21T09:23:50;95685.13;;;30.08;36.07
32197;BME280;18697;42.770;23.400;2022-07-21T09:26:15;95712.63;;;30.21;36.29
32197;BME280;18697;42.770;23.400;2022-07-21T09:28:41;95711.50;;;30.33;38.24
32197;BME280;18697;42.770;23.400;2022-07-21T09:31:09;95705.50;;;30.39;35.08
32197;BME280;18697;42.770;23.400;2022-07-21T09:33:44;95699.59;;;30.73;35.80
32197;BME280;18697;42.770;23.400;2022-07-21T09:38:41;95700.03;;;31.35;34.61
32197;BME280;18697;42.770;23.400;2022-07-21T09:41:11;95697.63;;;31.61;34.43
32197;BME280;18697;42.770;23.400;2022-07-21T09:43:40;95684.31;;;31.85;33.78
32197;BME280;18697;42.770;23.400;2022-07-21T09:48:40;95682.50;;;31.89;33.38
32197;BME280;18697;42.770;23.400;2022-07-21T09:51:29;95691.38;;;32.03;32.62
32197;BME280;18697;42.770;23.400;2022-07-21T09:54:06;95696.94;;;32.11;32.76
32197;BME280;18697;42.770;23.400;2022-07-21T09:56:37;95687.69;;;32.31;31.70
32197;BME280;18697;42.770;23.400;2022-07-21T09:59:04;95679.03;;;31.91;31.49
32197;BME280;18697;42.770;23.400;2022-07-21T10:01:30;95676.53;;;32.16;31.94
32197;BME280;18697;42.770;23.400;2022-07-21T10:03:56;95681.84;;;32.10;32.58
32197;BME280;18697;42.770;23.400;2022-07-21T10:06:28;95678.78;;;32.18;31.82
32197;BME280;18697;42.770;23.400;2022-07-21T10:08:58;95680.38;;;32.50;32.46
32197;BME280;18697;42.770;23.400;2022-07-21T10:11:25;95676.69;;;32.09;31.17
32197;BME280;18697;42.770;23.400;2022-07-21T10:13:52;95675.56;;;31.92;32.12
32197;BME280;18697;42.770;23.400;2022-07-21T10:16:18;95667.78;;;32.05;30.71
32197;BME280;18697;42.770;23.400;2022-07-21T10:19:10;95677.91;;;32.06;31.02
32197;BME280;18697;42.770;23.400;2022-07-21T10:21:42;95673.38;;;32.02;29.96
32197;BME280;18697;42.770;23.400;2022-07-21T10:24:12;95670.28;;;32.39;31.73
32197;BME280;18697;42.770;23.400;2022-07-21T10:26:38;95668.88;;;32.50;31.65
32197;BME280;18697;42.770;23.400;2022-07-21T10:29:04;95658.00;;;32.48;32.54
32197;BME280;18697;42.770;23.400;2022-07-21T10:31:29;95660.63;;;32.34;29.33
32197;BME280;18697;42.770;23.400;2022-07-21T10:34:00;95660.88;;;32.70;29.30
32197;BME280;18697;42.770;23.400;2022-07-21T10:39:12;95642.81;;;33.10;30.61
32197;BME280;18697;42.770;23.400;2022-07-21T10:41:48;95650.13;;;33.44;30.43
32197;BME280;18697;42.770;23.400;2022-07-21T10:47:22;95640.09;;;33.33;30.08
32197;BME280;18697;42.770;23.400;2022-07-21T10:57:45;95633.28;;;33.07;28.94
32197;BME280;18697;42.770;23.400;2022-07-21T11:00:28;95619.91;;;32.90;29.31
32197;BME280;18697;42.770;23.400;2022-07-21T11:03:03;95616.00;;;32.64;28.45
32197;BME280;18697;42.770;23.400;2022-07-21T11:05:32;95610.84;;;32.63;29.59
32197;BME280;18697;42.770;23.400;2022-07-21T11:10:52;95606.50;;;32.21;29.39
32197;BME280;18697;42.770;23.400;2022-07-21T11:13:20;95605.31;;;32.24;30.90
32197;BME280;18697;42.770;23.400;2022-07-21T11:15:57;95606.34;;;32.19;30.68
32197;BME280;18697;42.770;23.400;2022-07-21T11:18:28;95602.84;;;32.30;30.43
32197;BME280;18697;42.770;23.400;2022-07-21T11:21:15;95600.94;;;32.14;30.29
32197;BME280;18697;42.770;23.400;2022-07-21T11:23:50;95604.75;;;32.47;30.88
32197;BME280;18697;42.770;23.400;2022-07-21T11:26:23;95616.56;;;32.42;30.35
32197;BME280;18697;42.770;23.400;2022-07-21T11:29:03;95606.63;;;32.85;29.85
32197;BME280;18697;42.770;23.400;2022-07-21T11:31:29;95603.78;;;32.23;29.38
32197;BME280;18697;42.770;23.400;2022-07-21T11:33:54;95594.66;;;32.37;29.84
32197;BME280;18697;42.770;23.400;2022-07-21T11:36:31;95603.06;;;32.13;30.16
32197;BME280;18697;42.770;23.400;2022-07-21T11:39:15;95591.84;;;32.17;30.24
32197;BME280;18697;42.770;23.400;2022-07-21T11:41:42;95598.75;;;32.33;29.47
32197;BME280;18697;42.770;23.400;2022-07-21T11:44:09;95594.00;;;32.48;29.80
32197;BME280;18697;42.770;23.400;2022-07-21T11:46:50;95587.53;;;32.38;29.88
32197;BME280;18697;42.770;23.400;2022-07-21T11:49:16;95579.25;;;32.32;30.36
32197;BME280;18697;42.770;23.400;2022-07-21T11:51:46;95582.16;;;32.22;30.22
32197;BME280;18697;42.770;23.400;2022-07-21T11:56:53;95568.53;;;32.54;31.02
32197;BME280;18697;42.770;23.400;2022-07-21T11:59:20;95569.06;;;32.41;30.40
32197;BME280;18697;42.770;23.400;2022-07-21T12:02:06;95577.09;;;32.42;30.80
32197;BME280;18697;42.770;23.400;2022-07-21T12:04:45;95574.44;;;32.56;31.02
32197;BME280;18697;42.770;23.400;2022-07-21T12:07:13;95571.13;;;32.71;31.15
32197;BME280;18697;42.770;23.400;2022-07-21T12:09:40;95567.94;;;32.55;30.11
32197;BME280;18697;42.770;23.400;2022-07-21T12:12:07;95570.53;;;32.73;31.15
32197;BME280;18697;42.770;23.400;2022-07-21T12:14:44;95574.19;;;32.94;30.46
32197;BME280;18697;42.770;23.400;2022-07-21T12:17:10;95567.75;;;32.84;29.73
32197;BME280;18697;42.770;23.400;2022-07-21T12:19:36;95564.38;;;32.88;30.26
32197;BME280;18697;42.770;23.400;2022-07-21T12:22:02;95563.16;;;32.91;29.08
32197;BME280;18697;42.770;23.400;2022-07-21T12:24:50;95560.13;;;32.67;29.87
32197;BME280;18697;42.770;23.400;2022-07-21T12:27:16;95559.16;;;32.75;30.28
32197;BME280;18697;42.770;23.400;2022-07-21T12:29:42;95554.78;;;32.74;29.81
32197;BME280;18697;42.770;23.400;2022-07-21T12:32:08;95548.28;;;32.73;29.91
32197;BME280;18697;42.770;23.400;2022-07-21T12:34:47;95549.66;;;32.93;30.77
32197;BME280;18697;42.770;23.400;2022-07-21T12:37:13;95546.09;;;33.05;30.35
32197;BME280;18697;42.770;23.400;2022-07-21T12:39:39;95542.09;;;33.10;30.30
32197;BME280;18697;42.770;23.400;2022-07-21T12:42:31;95536.91;;;32.75;30.08
32197;BME280;18697;42.770;23.400;2022-07-21T12:44:57;95543.75;;;32.70;30.38
32197;BME280;18697;42.770;23.400;2022-07-21T12:47:23;95535.75;;;32.47;29.88
32197;BME280;18697;42.770;23.400;2022-07-21T12:50:02;95530.97;;;32.40;31.48
32197;BME280;18697;42.770;23.400;2022-07-21T12:52:29;95527.13;;;32.47;30.76
32197;BME280;18697;42.770;23.400;2022-07-21T12:54:56;95536.50;;;32.48;31.18
32197;BME280;18697;42.770;23.400;2022-07-21T12:57:21;95528.69;;;32.39;30.83
32197;BME280;18697;42.770;23.400;2022-07-21T12:59:47;95522.25;;;32.28;30.83
32197;BME280;18697;42.770;23.400;2022-07-21T13:02:12;95529.41;;;32.18;30.79
32197;BME280;18697;42.770;23.400;2022-07-21T13:04:38;95520.41;;;32.33;31.36
32197;BME280;18697;42.770;23.400;2022-07-21T13:07:03;95511.25;;;32.25;30.92
32197;BME280;18697;42.770;23.400;2022-07-21T13:09:28;95516.03;;;32.32;31.24
32197;BME280;18697;42.770;23.400;2022-07-21T13:11:54;95508.22;;;32.23;31.16
32197;BME280;18697;42.770;23.400;2022-07-21T13:14:19;95506.53;;;32.29;30.43